sensor_id;sensor_type;location;lat;lon;timestamp;pressure;altitude;pressure_sealevel;temperature;humidity
70445;BME280;57902;49.638;11.070;2023-06-22T00:02:05;98419.38;;;18.58;100.00
70445;BME280;57902;49.638;11.070;2023-06-22T00:04:47;98416.41;;;18.50;100.00
70445;BME280;57902;49.638;11.070;2023-06-22T00:07:16;98414.03;;;18.45;100.00
70445;BME280;57902;49.638;11.070;2023-06-22T00:10:00;98407.25;;;18.43;100.00
70445;BME280;57902;49.638;11.070;2023-06-22T00:12:35;98409.97;;;18.41;100.00
70445;BME280;57902;49.638;11.070;2023-06-22T00:15:13;98408.56;;;18.35;100.00
70445;BME280;57902;49.638;11.070;2023-06-22T00:17:42;98415.53;;;18.35;100.00
70445;BME280;57902;49.638;11.070;2023-06-22T00:20:18;98410.31;;;18.35;100.00
70445;BME280;57902;49.638;11.070;2023-06-22T00:22:53;98414.97;;;18.30;100.00
70445;BME280;57902;49.638;11.070;2023-06-22T00:25:27;98410.75;;;18.27;100.00
70445;BME280;57902;49.638;11.070;2023-06-22T00:27:58;98404.81;;;18.25;100.00
70445;BME280;57902;49.638;11.070;2023-06-22T00:30:33;98412.16;;;18.18;100.00
70445;BME280;57902;49.638;11.070;2023-06-22T00:33:06;98417.72;;;18.12;100.00
70445;BME280;57902;49.638;11.070;2023-06-22T00:35:46;98422.84;;;18.14;100.00
70445;BME280;57902;49.638;11.070;2023-06-22T00:38:16;98425.47;;;18.14;100.00
70445;BME280;57902;49.638;11.070;2023-06-22T00:40:55;98425.47;;;18.14;100.00
70445;BME280;57902;49.638;11.070;2023-06-22T00:43:33;98428.91;;;18.14;100.00
70445;BME280;57902;49.638;11.070;2023-06-22T00:46:03;98439.25;;;18.16;100.00
70445;BME280;57902;49.638;11.070;2023-06-22T00:48:30;98441.84;;;18.16;100.00
70445;BME280;57902;49.638;11.070;2023-06-22T00:51:05;98445.25;;;18.18;100.00
70445;BME280;57902;49.638;11.070;2023-06-22T00:53:33;98449.69;;;18.16;100.00
70445;BME280;57902;49.638;11.070;2023-06-22T00:56:02;98452.47;;;18.13;100.00
70445;BME280;57902;49.638;11.070;2023-06-22T00:58:36;98457.97;;;18.08;100.00
70445;BME280;57902;49.638;11.070;2023-06-22T01:01:03;98462.53;;;18.05;100.00
70445;BME280;57902;49.638;11.070;2023-06-22T01:03:31;98465.13;;;18.05;100.00
70445;BME280;57902;49.638;11.070;2023-06-22T01:06:13;98460.09;;;18.01;100.00
70445;BME280;57902;49.638;11.070;2023-06-22T01:08:49;98454.66;;;17.90;100.00
70445;BME280;57902;49.638;11.070;2023-06-22T01:11:28;98437.56;;;17.84;100.00
70445;BME280;57902;49.638;11.070;2023-06-22T01:14:00;98418.47;;;17.84;100.00
70445;BME280;57902;49.638;11.070;2023-06-22T01:16:31;98410.47;;;17.87;100.00
70445;BME280;57902;49.638;11.070;2023-06-22T01:21:43;98378.28;;;17.72;100.00
70445;BME280;57902;49.638;11.070;2023-06-22T01:24:26;98369.88;;;17.67;100.00
70445;BME280;57902;49.638;11.070;2023-06-22T01:29:55;98344.06;;;17.62;100.00
70445;BME280;57902;49.638;11.070;2023-06-22T01:32:30;98338.13;;;17.60;100.00
70445;BME280;57902;49.638;11.070;2023-06-22T01:35:01;98341.56;;;17.61;100.00
70445;BME280;57902;49.638;11.070;2023-06-22T01:37:29;98342.47;;;17.60;100.00
70445;BME280;57902;49.638;11.070;2023-06-22T01:39:59;98340.56;;;17.63;100.00
70445;BME280;57902;49.638;11.070;2023-06-22T01:42:26;98335.34;;;17.63;100.00
70445;BME280;57902;49.638;11.070;2023-06-22T01:44:56;98338.13;;;17.60;100.00
70445;BME280;57902;49.638;11.070;2023-06-22T01:47:24;98343.16;;;17.63;100.00
70445;BME280;57902;49.638;11.070;2023-06-22T01:49:51;98356.00;;;17.66;100.00
70445;BME280;57902;49.638;11.070;2023-06-22T01:52:18;98356.84;;;17.67;100.00
70445;BME280;57902;49.638;11.070;2023-06-22T01:54:47;98367.19;;;17.69;100.00
70445;BME280;57902;49.638;11.070;2023-06-22T01:57:14;98366.91;;;17.73;100.00
70445;BME280;57902;49.638;11.070;2023-06-22T02:02:24;98361.97;;;17.69;100.00
70445;BME280;57902;49.638;11.070;2023-06-22T02:04:59;98360.63;;;17.61;100.00
70445;BME280;57902;49.638;11.070;2023-06-22T02:07:41;98364.25;;;17.59;100.00
70445;BME280;57902;49.638;11.070;2023-06-22T02:10:13;98375.91;;;17.53;100.00
70445;BME280;57902;49.638;11.070;2023-06-22T02:12:43;98387.50;;;17.47;100.00
70445;BME280;57902;49.638;11.070;2023-06-22T02:15:11;98398.94;;;17.45;100.00
70445;BME280;57902;49.638;11.070;2023-06-22T02:17:39;98395.72;;;17.40;100.00
70445;BME280;57902;49.638;11.070;2023-06-22T02:20:06;98396.41;;;17.43;100.00
70445;BME280;57902;49.638;11.070;2023-06-22T02:22:38;98394.72;;;17.42;100.00
70445;BME280;57902;49.638;11.070;2023-06-22T02:25:04;98392.19;;;17.41;100.00
70445;BME280;57902;49.638;11.070;2023-06-22T02:27:31;98387.84;;;17.41;100.00
70445;BME280;57902;49.638;11.070;2023-06-22T02:29:57;98381.78;;;17.41;100.00
70445;BME280;57902;49.638;11.070;2023-06-22T02:32:24;98385.25;;;17.41;100.00
70445;BME280;57902;49.638;11.070;2023-06-22T02:34:52;98387.84;;;17.41;100.00
70445;BME280;57902;49.638;11.070;2023-06-22T02:37:19;98401.63;;;17.43;100.00
70445;BME280;57902;49.638;11.070;2023-06-22T02:39:45;98416.44;;;17.43;100.00
70445;BME280;57902;49.638;11.070;2023-06-22T02:42:12;98438.03;;;17.45;100.00
70445;BME280;57902;49.638;11.070;2023-06-22T02:44:39;98462.66;;;17.55;100.00
70445;BME280;57902;49.638;11.070;2023-06-22T02:47:05;98517.72;;;17.65;100.00
70445;BME280;57902;49.638;11.070;2023-06-22T02:49:32;98578.19;;;17.72;100.00
70445;BME280;57902;49.638;11.070;2023-06-22T02:51:58;98612.34;;;17.83;100.00
70445;BME280;57902;49.638;11.070;2023-06-22T02:54:25;98586.69;;;17.75;100.00
70445;BME280;57902;49.638;11.070;2023-06-22T02:56:51;98555.50;;;17.74;100.00
70445;BME280;57902;49.638;11.070;2023-06-22T02:59:18;98565.75;;;17.77;100.00
70445;BME280;57902;49.638;11.070;2023-06-22T03:01:50;98564.72;;;17.79;100.00
70445;BME280;57902;49.638;11.070;2023-06-22T03:04:18;98557.69;;;17.81;100.00
70445;BME280;57902;49.638;11.070;2023-06-22T03:06:44;98548.84;;;17.84;100.00
70445;BME280;57902;49.638;11.070;2023-06-22T03:09:17;98553.22;;;17.83;100.00
70445;BME280;57902;49.638;11.070;2023-06-22T03:11:43;98543.47;;;17.87;100.00
70445;BME280;57902;49.638;11.070;2023-06-22T03:14:10;98525.28;;;17.86;100.00
70445;BME280;57902;49.638;11.070;2023-06-22T03:16:37;98526.66;;;17.93;100.00
70445;BME280;57902;49.638;11.070;2023-06-22T03:19:03;98530.09;;;17.93;100.00
70445;BME280;57902;49.638;11.070;2023-06-22T03:21:30;98528.41;;;17.92;100.00
70445;BME280;57902;49.638;11.070;2023-06-22T03:23:56;98517.28;;;17.89;100.00
70445;BME280;57902;49.638;11.070;2023-06-22T03:26:23;98516.38;;;17.90;100.00
70445;BME280;57902;49.638;11.070;2023-06-22T03:28:53;98508.41;;;17.93;100.00
70445;BME280;57902;49.638;11.070;2023-06-22T03:31:19;98498.91;;;17.92;100.00
70445;BME280;57902;49.638;11.070;2023-06-22T03:33:49;98501.41;;;17.93;100.00
70445;BME280;57902;49.638;11.070;2023-06-22T03:36:17;98495.38;;;17.93;100.00
70445;BME280;57902;49.638;11.070;2023-06-22T03:38:47;98485.03;;;17.91;100.00
70445;BME280;57902;49.638;11.070;2023-06-22T03:41:14;98471.03;;;17.92;100.00
70445;BME280;57902;49.638;11.070;2023-06-22T03:43:40;98482.81;;;17.99;100.00
70445;BME280;57902;49.638;11.070;2023-06-22T03:46:07;98470.34;;;18.05;100.00
70445;BME280;57902;49.638;11.070;2023-06-22T03:48:34;98466.81;;;18.06;100.00
70445;BME280;57902;49.638;11.070;2023-06-22T03:51:01;98459.94;;;18.05;100.00
70445;BME280;57902;49.638;11.070;2023-06-22T03:53:28;98450.97;;;18.09;100.00
70445;BME280;57902;49.638;11.070;2023-06-22T03:55:55;98442.63;;;18.18;100.00
70445;BME280;57902;49.638;11.070;2023-06-22T03:58:22;98437.88;;;18.25;100.00
70445;BME280;57902;49.638;11.070;2023-06-22T04:00:50;98428.56;;;18.35;100.00
70445;BME280;57902;49.638;11.070;2023-06-22T04:03:18;98420.03;;;18.47;100.00
70445;BME280;57902;49.638;11.070;2023-06-22T04:05:47;98423.41;;;18.64;100.00
70445;BME280;57902;49.638;11.070;2023-06-22T04:08:15;98404.72;;;18.84;100.00
70445;BME280;57902;49.638;11.070;2023-06-22T04:10:42;98389.63;;;19.04;100.00
70445;BME280;57902;49.638;11.070;2023-06-22T04:13:09;98386.28;;;19.29;100.00
70445;BME280;57902;49.638;11.070;2023-06-22T04:15:36;98390.09;;;19.65;100.00
70445;BME280;57902;49.638;11.070;2023-06-22T04:18:02;98375.16;;;20.07;98.29
70445;BME280;57902;49.638;11.070;2023-06-22T04:20:31;98356.50;;;20.51;94.80
70445;BME280;57902;49.638;11.070;2023-06-22T04:22:58;98354.91;;;20.61;92.39
70445;BME280;57902;49.638;11.070;2023-06-22T04:25:25;98372.78;;;21.06;93.87
70445;BME280;57902;49.638;11.070;2023-06-22T04:27:52;98372.66;;;21.69;87.79
70445;BME280;57902;49.638;11.070;2023-06-22T04:30:18;98350.41;;;22.32;83.36
70445;BME280;57902;49.638;11.070;2023-06-22T04:32:45;98339.38;;;22.95;78.89
70445;BME280;57902;49.638;11.070;2023-06-22T04:35:11;98354.34;;;23.38;76.94
70445;BME280;57902;49.638;11.070;2023-06-22T04:37:38;98361.84;;;24.08;73.50
70445;BME280;57902;49.638;11.070;2023-06-22T04:40:06;98361.50;;;24.53;71.27
70445;BME280;57902;49.638;11.070;2023-06-22T04:43:06;98343.75;;;24.86;67.57
70445;BME280;57902;49.638;11.070;2023-06-22T04:45:33;98337.69;;;25.15;65.74
70445;BME280;57902;49.638;11.070;2023-06-22T04:47:59;98351.47;;;25.28;66.76
70445;BME280;57902;49.638;11.070;2023-06-22T04:50:26;98356.03;;;25.26;67.02
70445;BME280;57902;49.638;11.070;2023-06-22T04:52:53;98344.38;;;25.19;64.67
70445;BME280;57902;49.638;11.070;2023-06-22T04:55:20;98333.00;;;25.19;66.17
70445;BME280;57902;49.638;11.070;2023-06-22T04:57:48;98332.28;;;25.26;65.02
70445;BME280;57902;49.638;11.070;2023-06-22T05:00:16;98343.72;;;25.37;66.66
70445;BME280;57902;49.638;11.070;2023-06-22T05:02:45;98351.22;;;25.51;64.70
70445;BME280;57902;49.638;11.070;2023-06-22T05:05:13;98338.69;;;25.92;64.37
70445;BME280;57902;49.638;11.070;2023-06-22T05:07:41;98336.97;;;26.30;62.62
70445;BME280;57902;49.638;11.070;2023-06-22T05:10:10;98331.03;;;26.56;62.19
70445;BME280;57902;49.638;11.070;2023-06-22T05:12:39;98335.81;;;26.98;59.42
70445;BME280;57902;49.638;11.070;2023-06-22T05:15:07;98340.63;;;27.31;57.11
70445;BME280;57902;49.638;11.070;2023-06-22T05:17:35;98341.31;;;28.13;55.29
70445;BME280;57902;49.638;11.070;2023-06-22T05:20:02;98333.00;;;28.34;55.04
70445;BME280;57902;49.638;11.070;2023-06-22T05:22:32;98328.94;;;28.83;52.39
70445;BME280;57902;49.638;11.070;2023-06-22T05:24:58;98331.31;;;28.59;52.85
70445;BME280;57902;49.638;11.070;2023-06-22T05:27:25;98333.91;;;28.94;52.71
70445;BME280;57902;49.638;11.070;2023-06-22T05:29:51;98324.44;;;28.83;51.15
70445;BME280;57902;49.638;11.070;2023-06-22T05:32:18;98324.72;;;29.14;50.97
70445;BME280;57902;49.638;11.070;2023-06-22T05:34:45;98317.94;;;29.70;49.79
70445;BME280;57902;49.638;11.070;2023-06-22T05:37:11;98322.09;;;29.80;51.07
70445;BME280;57902;49.638;11.070;2023-06-22T05:39:39;98323.75;;;30.06;49.00
70445;BME280;57902;49.638;11.070;2023-06-22T05:42:06;98330.75;;;29.91;48.48
70445;BME280;57902;49.638;11.070;2023-06-22T05:44:36;98334.06;;;29.43;48.82
70445;BME280;57902;49.638;11.070;2023-06-22T05:47:03;98327.22;;;30.07;50.23
70445;BME280;57902;49.638;11.070;2023-06-22T05:49:30;98335.00;;;30.41;48.68
70445;BME280;57902;49.638;11.070;2023-06-22T05:51:59;98336.06;;;30.07;47.24
70445;BME280;57902;49.638;11.070;2023-06-22T05:54:29;98325.84;;;30.44;47.64
70445;BME280;57902;49.638;11.070;2023-06-22T05:56:56;98324.81;;;30.84;46.10
70445;BME280;57902;49.638;11.070;2023-06-22T05:59:23;98338.84;;;30.78;44.98
70445;BME280;57902;49.638;11.070;2023-06-22T06:01:49;98329.59;;;30.66;47.36
70445;BME280;57902;49.638;11.070;2023-06-22T06:04:17;98320.28;;;29.81;47.98
70445;BME280;57902;49.638;11.070;2023-06-22T06:06:44;98314.22;;;30.20;48.00
70445;BME280;57902;49.638;11.070;2023-06-22T06:09:14;98311.13;;;31.04;45.12
70445;BME280;57902;49.638;11.070;2023-06-22T06:11:40;98315.03;;;30.37;46.49
70445;BME280;57902;49.638;11.070;2023-06-22T06:14:07;98311.03;;;30.33;46.17
70445;BME280;57902;49.638;11.070;2023-06-22T06:16:33;98316.66;;;30.54;45.78
70445;BME280;57902;49.638;11.070;2023-06-22T06:19:00;98319.91;;;30.17;45.99
70445;BME280;57902;49.638;11.070;2023-06-22T06:21:26;98327.66;;;30.51;46.69
70445;BME280;57902;49.638;11.070;2023-06-22T06:23:56;98318.00;;;30.82;45.68
70445;BME280;57902;49.638;11.070;2023-06-22T06:26:22;98317.41;;;30.71;45.35
70445;BME280;57902;49.638;11.070;2023-06-22T06:28:55;98311.25;;;31.34;44.22
70445;BME280;57902;49.638;11.070;2023-06-22T06:31:22;98315.59;;;31.03;45.73
70445;BME280;57902;49.638;11.070;2023-06-22T06:33:50;98311.81;;;29.94;46.69
70445;BME280;57902;49.638;11.070;2023-06-22T06:36:16;98306.88;;;30.39;46.46
70445;BME280;57902;49.638;11.070;2023-06-22T06:38:49;98305.81;;;31.04;44.65
70445;BME280;57902;49.638;11.070;2023-06-22T06:41:16;98300.72;;;31.17;44.63
70445;BME280;57902;49.638;11.070;2023-06-22T06:43:43;98300.44;;;31.50;43.23
70445;BME280;57902;49.638;11.070;2023-06-22T06:46:09;98306.78;;;31.03;44.28
70445;BME280;57902;49.638;11.070;2023-06-22T06:48:36;98298.91;;;31.33;43.90
70445;BME280;57902;49.638;11.070;2023-06-22T06:51:03;98307.09;;;31.54;42.81
70445;BME280;57902;49.638;11.070;2023-06-22T06:53:29;98310.06;;;31.36;44.16
70445;BME280;57902;49.638;11.070;2023-06-22T06:55:56;98315.97;;;30.92;44.75
70445;BME280;57902;49.638;11.070;2023-06-22T06:58:23;98319.00;;;31.67;43.31
70445;BME280;57902;49.638;11.070;2023-06-22T07:00:49;98316.44;;;31.27;45.12
70445;BME280;57902;49.638;11.070;2023-06-22T07:03:16;98302.72;;;32.15;42.63
70445;BME280;57902;49.638;11.070;2023-06-22T07:05:42;98303.63;;;32.07;43.02
70445;BME280;57902;49.638;11.070;2023-06-22T07:08:09;98293.38;;;31.66;42.80
70445;BME280;57902;49.638;11.070;2023-06-22T07:10:36;98297.44;;;31.91;42.98
70445;BME280;57902;49.638;11.070;2023-06-22T07:13:03;98294.66;;;31.47;44.31
70445;BME280;57902;49.638;11.070;2023-06-22T07:15:29;98282.75;;;31.96;43.44
70445;BME280;57902;49.638;11.070;2023-06-22T07:17:56;98277.94;;;32.51;41.69
70445;BME280;57902;49.638;11.070;2023-06-22T07:20:25;98283.47;;;32.79;40.81
70445;BME280;57902;49.638;11.070;2023-06-22T07:22:52;98289.34;;;31.85;42.33
70445;BME280;57902;49.638;11.070;2023-06-22T07:25:19;98282.81;;;31.87;42.35
70445;BME280;57902;49.638;11.070;2023-06-22T07:27:46;98294.44;;;32.54;41.17
70445;BME280;57902;49.638;11.070;2023-06-22T07:30:22;98281.59;;;32.79;38.85
70445;BME280;57902;49.638;11.070;2023-06-22T07:32:49;98282.56;;;32.42;40.77
70445;BME280;57902;49.638;11.070;2023-06-22T07:35:21;98275.00;;;32.60;40.10
70445;BME280;57902;49.638;11.070;2023-06-22T07:37:47;98280.91;;;32.56;39.92
70445;BME280;57902;49.638;11.070;2023-06-22T07:40:17;98277.03;;;32.58;40.08
70445;BME280;57902;49.638;11.070;2023-06-22T07:42:49;98279.53;;;32.45;40.79
70445;BME280;57902;49.638;11.070;2023-06-22T07:45:23;98266.75;;;32.25;39.67
70445;BME280;57902;49.638;11.070;2023-06-22T07:47:49;98269.59;;;32.69;40.98
70445;BME280;57902;49.638;11.070;2023-06-22T07:50:16;98268.13;;;32.21;39.48
70445;BME280;57902;49.638;11.070;2023-06-22T07:52:43;98264.81;;;33.22;37.13
70445;BME280;57902;49.638;11.070;2023-06-22T07:55:10;98271.50;;;33.18;38.87
70445;BME280;57902;49.638;11.070;2023-06-22T07:57:36;98270.66;;;33.33;37.21
70445;BME280;57902;49.638;11.070;2023-06-22T08:00:05;98270.56;;;33.47;37.81
70445;BME280;57902;49.638;11.070;2023-06-22T08:02:42;98270.91;;;33.88;36.84
70445;BME280;57902;49.638;11.070;2023-06-22T08:05:09;98260.28;;;33.01;38.08
70445;BME280;57902;49.638;11.070;2023-06-22T08:07:59;98263.91;;;33.37;37.81
70445;BME280;57902;49.638;11.070;2023-06-22T08:17:28;98275.75;;;34.06;36.39
70445;BME280;57902;49.638;11.070;2023-06-22T08:20:06;98271.41;;;33.48;36.96
70445;BME280;57902;49.638;11.070;2023-06-22T08:23:02;98272.41;;;33.47;36.97
70445;BME280;57902;49.638;11.070;2023-06-22T08:25:50;98271.66;;;33.31;36.72
70445;BME280;57902;49.638;11.070;2023-06-22T08:28:24;98262.81;;;33.09;38.02
70445;BME280;57902;49.638;11.070;2023-06-22T08:31:12;98261.44;;;32.25;39.61
70445;BME280;57902;49.638;11.070;2023-06-22T08:33:40;98251.75;;;31.95;40.08
70445;BME280;57902;49.638;11.070;2023-06-22T08:36:20;98254.72;;;32.30;40.00
70445;BME280;57902;49.638;11.070;2023-06-22T08:39:52;98245.66;;;31.56;40.84
70445;BME280;57902;49.638;11.070;2023-06-22T08:42:56;98248.34;;;31.48;39.37
70445;BME280;57902;49.638;11.070;2023-06-22T08:45:37;98256.41;;;30.93;41.02
70445;BME280;57902;49.638;11.070;2023-06-22T08:48:09;98256.78;;;30.59;41.46
70445;BME280;57902;49.638;11.070;2023-06-22T08:50:46;98253.44;;;30.65;41.18
70445;BME280;57902;49.638;11.070;2023-06-22T08:53:27;98259.97;;;30.54;41.81
70445;BME280;57902;49.638;11.070;2023-06-22T08:55:54;98260.25;;;30.59;41.00
70445;BME280;57902;49.638;11.070;2023-06-22T08:58:21;98236.28;;;30.28;42.34
70445;BME280;57902;49.638;11.070;2023-06-22T09:00:50;98237.13;;;30.60;41.26
70445;BME280;57902;49.638;11.070;2023-06-22T09:03:24;98233.06;;;30.49;42.92
70445;BME280;57902;49.638;11.070;2023-06-22T09:05:53;98240.94;;;30.97;40.86
70445;BME280;57902;49.638;11.070;2023-06-22T09:08:21;98238.06;;;30.35;41.68
70445;BME280;57902;49.638;11.070;2023-06-22T09:10:49;98227.72;;;30.49;41.32
70445;BME280;57902;49.638;11.070;2023-06-22T09:13:16;98220.44;;;30.74;42.25
70445;BME280;57902;49.638;11.070;2023-06-22T09:15:45;98221.09;;;30.76;41.56
70445;BME280;57902;49.638;11.070;2023-06-22T09:18:14;98220.38;;;30.59;41.55
70445;BME280;57902;49.638;11.070;2023-06-22T09:20:50;98212.00;;;30.70;42.01
70445;BME280;57902;49.638;11.070;2023-06-22T09:23:25;98211.22;;;30.85;41.56
70445;BME280;57902;49.638;11.070;2023-06-22T09:25:54;98210.19;;;30.86;41.89
70445;BME280;57902;49.638;11.070;2023-06-22T09:28:22;98212.94;;;30.78;41.45
70445;BME280;57902;49.638;11.070;2023-06-22T09:30:50;98198.94;;;31.07;40.38
70445;BME280;57902;49.638;11.070;2023-06-22T09:33:17;98204.66;;;30.96;40.70
70445;BME280;57902;49.638;11.070;2023-06-22T09:35:46;98207.81;;;30.99;40.07
70445;BME280;57902;49.638;11.070;2023-06-22T09:38:17;98195.84;;;30.72;41.04
70445;BME280;57902;49.638;11.070;2023-06-22T09:40:47;98209.53;;;30.61;41.16
70445;BME280;57902;49.638;11.070;2023-06-22T09:43:14;98191.50;;;30.71;41.21
70445;BME280;57902;49.638;11.070;2023-06-22T09:45:44;98191.22;;;30.66;41.02
70445;BME280;57902;49.638;11.070;2023-06-22T09:48:10;98174.31;;;30.59;41.65
70445;BME280;57902;49.638;11.070;2023-06-22T09:50:37;98172.50;;;30.82;42.10
70445;BME280;57902;49.638;11.070;2023-06-22T09:53:04;98166.63;;;30.87;41.46
70445;BME280;57902;49.638;11.070;2023-06-22T09:55:31;98178.63;;;30.83;42.51
70445;BME280;57902;49.638;11.070;2023-06-22T09:57:58;98183.28;;;30.58;42.62
70445;BME280;57902;49.638;11.070;2023-06-22T10:00:30;98191.94;;;30.83;40.85
70445;BME280;57902;49.638;11.070;2023-06-22T10:02:59;98193.59;;;30.84;41.59
70445;BME280;57902;49.638;11.070;2023-06-22T10:05:32;98190.63;;;30.79;41.65
70445;BME280;57902;49.638;11.070;2023-06-22T10:08:05;98183.19;;;30.74;41.16
70445;BME280;57902;49.638;11.070;2023-06-22T10:10:50;98172.75;;;30.87;40.65
70445;BME280;57902;49.638;11.070;2023-06-22T10:13:19;98174.25;;;30.67;42.02
70445;BME280;57902;49.638;11.070;2023-06-22T10:15:46;98175.69;;;30.78;41.56
70445;BME280;57902;49.638;11.070;2023-06-22T10:18:18;98180.34;;;30.76;42.61
70445;BME280;57902;49.638;11.070;2023-06-22T10:20:51;98188.00;;;31.02;40.14
70445;BME280;57902;49.638;11.070;2023-06-22T10:23:33;98185.66;;;30.99;41.67
70445;BME280;57902;49.638;11.070;2023-06-22T10:26:04;98183.16;;;31.05;41.01
70445;BME280;57902;49.638;11.070;2023-06-22T10:28:31;98180.59;;;31.12;40.14
70445;BME280;57902;49.638;11.070;2023-06-22T10:31:11;98170.59;;;31.14;41.28
70445;BME280;57902;49.638;11.070;2023-06-22T10:33:41;98186.84;;;31.19;41.22
70445;BME280;57902;49.638;11.070;2023-06-22T10:36:17;98193.63;;;31.45;39.63
70445;BME280;57902;49.638;11.070;2023-06-22T10:38:46;98193.63;;;31.45;39.32
70445;BME280;57902;49.638;11.070;2023-06-22T10:41:19;98188.63;;;31.42;39.61
70445;BME280;57902;49.638;11.070;2023-06-22T10:43:59;98180.44;;;31.29;40.94
70445;BME280;57902;49.638;11.070;2023-06-22T10:46:28;98166.91;;;31.15;39.67
70445;BME280;57902;49.638;11.070;2023-06-22T10:48:54;98167.78;;;31.31;40.39
70445;BME280;57902;49.638;11.070;2023-06-22T10:51:26;98164.41;;;31.52;39.49
70445;BME280;57902;49.638;11.070;2023-06-22T10:54:04;98162.91;;;31.34;40.40
70445;BME280;57902;49.638;11.070;2023-06-22T10:56:53;98158.66;;;31.63;39.96
70445;BME280;57902;49.638;11.070;2023-06-22T10:59:19;98160.13;;;31.66;39.23
70445;BME280;57902;49.638;11.070;2023-06-22T11:02:06;98159.28;;;31.65;39.25
70445;BME280;57902;49.638;11.070;2023-06-22T11:04:54;98153.03;;;31.58;39.68
70445;BME280;57902;49.638;11.070;2023-06-22T11:07:26;98156.06;;;31.70;39.61
70445;BME280;57902;49.638;11.070;2023-06-22T11:10:01;98142.22;;;31.74;39.23
70445;BME280;57902;49.638;11.070;2023-06-22T11:12:48;98146.25;;;31.70;40.42
70445;BME280;57902;49.638;11.070;2023-06-22T11:15:15;98142.53;;;31.71;39.69
70445;BME280;57902;49.638;11.070;2023-06-22T11:17:45;98146.06;;;31.57;39.61
70445;BME280;57902;49.638;11.070;2023-06-22T11:20:19;98131.78;;;31.50;40.13
70445;BME280;57902;49.638;11.070;2023-06-22T11:23:10;98124.44;;;31.67;38.93
70445;BME280;57902;49.638;11.070;2023-06-22T11:25:56;98115.09;;;31.71;39.65
70445;BME280;57902;49.638;11.070;2023-06-22T11:28:27;98122.63;;;31.82;38.92
70445;BME280;57902;49.638;11.070;2023-06-22T11:31:06;98112.50;;;31.78;38.85
70445;BME280;57902;49.638;11.070;2023-06-22T11:33:56;98087.69;;;31.77;37.98
70445;BME280;57902;49.638;11.070;2023-06-22T11:36:29;98093.25;;;31.97;38.11
70445;BME280;57902;49.638;11.070;2023-06-22T11:39:11;98103.84;;;31.90;38.08
70445;BME280;57902;49.638;11.070;2023-06-22T11:44:12;98098.03;;;32.02;37.93
70445;BME280;57902;49.638;11.070;2023-06-22T11:46:42;98099.94;;;32.08;38.30
70445;BME280;57902;49.638;11.070;2023-06-22T11:49:31;98095.44;;;32.08;38.26
70445;BME280;57902;49.638;11.070;2023-06-22T11:52:09;98096.03;;;32.04;38.32
70445;BME280;57902;49.638;11.070;2023-06-22T11:54:41;98096.66;;;32.06;37.83
70445;BME280;57902;49.638;11.070;2023-06-22T11:57:13;98086.53;;;32.16;38.22
70445;BME280;57902;49.638;11.070;2023-06-22T11:59:55;98084.25;;;32.13;38.50
70445;BME280;57902;49.638;11.070;2023-06-22T12:02:35;98070.63;;;32.23;37.60
70445;BME280;57902;49.638;11.070;2023-06-22T12:05:05;98063.88;;;32.49;36.87
70445;BME280;57902;49.638;11.070;2023-06-22T12:07:38;98052.88;;;32.58;37.52
70445;BME280;57902;49.638;11.070;2023-06-22T12:10:22;98059.53;;;32.48;37.09
70445;BME280;57902;49.638;11.070;2023-06-22T12:13:01;98059.22;;;32.36;36.95
70445;BME280;57902;49.638;11.070;2023-06-22T12:15:30;98050.63;;;32.62;36.69
70445;BME280;57902;49.638;11.070;2023-06-22T12:17:59;98048.81;;;32.41;36.94
70445;BME280;57902;49.638;11.070;2023-06-22T12:20:35;98041.63;;;32.41;37.59
70445;BME280;57902;49.638;11.070;2023-06-22T12:23:02;98034.44;;;32.42;36.46
70445;BME280;57902;49.638;11.070;2023-06-22T12:25:36;98024.28;;;32.52;36.79
70445;BME280;57902;49.638;11.070;2023-06-22T12:28:03;98009.28;;;32.73;35.71
70445;BME280;57902;49.638;11.070;2023-06-22T12:30:43;98013.97;;;32.99;35.86
70445;BME280;57902;49.638;11.070;2023-06-22T12:33:19;98006.63;;;32.73;36.63
70445;BME280;57902;49.638;11.070;2023-06-22T12:35:46;98005.44;;;32.82;35.92
70445;BME280;57902;49.638;11.070;2023-06-22T12:38:15;97989.81;;;32.79;35.51
70445;BME280;57902;49.638;11.070;2023-06-22T12:40:44;97984.84;;;33.04;36.32
70445;BME280;57902;49.638;11.070;2023-06-22T12:43:10;97985.19;;;32.94;36.69
70445;BME280;57902;49.638;11.070;2023-06-22T12:45:51;97986.28;;;33.07;36.16
70445;BME280;57902;49.638;11.070;2023-06-22T12:48:47;97983.56;;;33.35;35.39
70445;BME280;57902;49.638;11.070;2023-06-22T12:51:26;97991.66;;;33.13;35.48
70445;BME280;57902;49.638;11.070;2023-06-22T12:54:02;97971.34;;;33.19;35.44
70445;BME280;57902;49.638;11.070;2023-06-22T12:56:51;97986.09;;;33.15;36.04
70445;BME280;57902;49.638;11.070;2023-06-22T13:05:23;97984.03;;;33.10;36.18
70445;BME280;57902;49.638;11.070;2023-06-22T13:07:52;97978.19;;;33.28;35.14
70445;BME280;57902;49.638;11.070;2023-06-22T13:10:21;97974.50;;;33.29;34.54
70445;BME280;57902;49.638;11.070;2023-06-22T13:12:58;97969.47;;;33.13;35.10
70445;BME280;57902;49.638;11.070;2023-06-22T13:15:29;97961.63;;;33.05;35.10
70445;BME280;57902;49.638;11.070;2023-06-22T13:17:56;97976.06;;;33.17;35.07
70445;BME280;57902;49.638;11.070;2023-06-22T13:20:22;97971.75;;;33.16;35.06
70445;BME280;57902;49.638;11.070;2023-06-22T13:22:49;97977.63;;;33.40;34.78
70445;BME280;57902;49.638;11.070;2023-06-22T13:25:16;97975.44;;;33.63;34.56
70445;BME280;57902;49.638;11.070;2023-06-22T13:27:45;97970.94;;;33.71;34.46
70445;BME280;57902;49.638;11.070;2023-06-22T13:30:13;97973.88;;;33.76;34.94
70445;BME280;57902;49.638;11.070;2023-06-22T13:32:41;97972.25;;;33.88;34.75